sensor_id;sensor_type;location;lat;lon;timestamp;P1;durP1;ratioP1;P2;durP2;ratioP2
6203;SDS011;3135;42.602;23.468;2022-12-22T00:02:30;37.20;;;14.82;;
6203;SDS011;3135;42.602;23.468;2022-12-22T00:05:21;33.88;;;12.15;;
6203;SDS011;3135;42.602;23.468;2022-12-22T00:08:06;29.25;;;11.55;;
6203;SDS011;3135;42.602;23.468;2022-12-22T00:10:51;27.97;;;11.03;;
6203;SDS011;3135;42.602;23.468;2022-12-22T00:13:36;28.70;;;11.95;;
6203;SDS011;3135;42.602;23.468;2022-12-22T00:16:22;32.97;;;12.32;;
6203;SDS011;3135;42.602;23.468;2022-12-22T00:19:15;30.35;;;11.18;;
6203;SDS011;3135;42.602;23.468;2022-12-22T00:22:12;163.97;;;44.37;;
6203;SDS011;3135;42.602;23.468;2022-12-22T00:25:02;94.25;;;27.08;;
6203;SDS011;3135;42.602;23.468;2022-12-22T00:27:46;55.50;;;18.33;;
6203;SDS011;3135;42.602;23.468;2022-12-22T00:30:30;50.17;;;17.85;;
6203;SDS011;3135;42.602;23.468;2022-12-22T00:33:16;41.10;;;14.35;;
6203;SDS011;3135;42.602;23.468;2022-12-22T00:36:03;35.92;;;13.75;;
6203;SDS011;3135;42.602;23.468;2022-12-22T00:38:48;30.25;;;12.18;;
6203;SDS011;3135;42.602;23.468;2022-12-22T00:41:32;31.03;;;12.37;;
6203;SDS011;3135;42.602;23.468;2022-12-22T00:44:16;32.28;;;12.20;;
6203;SDS011;3135;42.602;23.468;2022-12-22T00:47:00;39.13;;;13.57;;
6203;SDS011;3135;42.602;23.468;2022-12-22T00:49:45;40.58;;;15.00;;
6203;SDS011;3135;42.602;23.468;2022-12-22T00:52:30;30.63;;;12.70;;
6203;SDS011;3135;42.602;23.468;2022-12-22T00:55:16;28.08;;;11.20;;
6203;SDS011;3135;42.602;23.468;2022-12-22T00:58:03;30.08;;;11.65;;
6203;SDS011;3135;42.602;23.468;2022-12-22T01:00:55;29.80;;;10.48;;
6203;SDS011;3135;42.602;23.468;2022-12-22T01:03:39;27.35;;;11.30;;
6203;SDS011;3135;42.602;23.468;2022-12-22T01:06:23;25.13;;;10.77;;
6203;SDS011;3135;42.602;23.468;2022-12-22T01:09:12;66.07;;;19.88;;
6203;SDS011;3135;42.602;23.468;2022-12-22T01:11:56;45.33;;;15.07;;
6203;SDS011;3135;42.602;23.468;2022-12-22T01:14:40;31.25;;;11.80;;
6203;SDS011;3135;42.602;23.468;2022-12-22T01:17:24;29.37;;;10.50;;
6203;SDS011;3135;42.602;23.468;2022-12-22T01:20:08;25.95;;;10.35;;
6203;SDS011;3135;42.602;23.468;2022-12-22T01:22:52;29.73;;;10.35;;
6203;SDS011;3135;42.602;23.468;2022-12-22T01:25:36;24.35;;;9.18;;
6203;SDS011;3135;42.602;23.468;2022-12-22T01:28:20;35.70;;;13.07;;
6203;SDS011;3135;42.602;23.468;2022-12-22T01:31:38;28.63;;;13.17;;
6203;SDS011;3135;42.602;23.468;2022-12-22T01:34:15;22.48;;;9.25;;
6203;SDS011;3135;42.602;23.468;2022-12-22T01:36:59;20.65;;;8.43;;
6203;SDS011;3135;42.602;23.468;2022-12-22T01:39:43;21.35;;;8.75;;
6203;SDS011;3135;42.602;23.468;2022-12-22T01:42:29;19.88;;;8.35;;
6203;SDS011;3135;42.602;23.468;2022-12-22T01:48:13;57.53;;;17.00;;
6203;SDS011;3135;42.602;23.468;2022-12-22T01:50:59;31.90;;;11.77;;
6203;SDS011;3135;42.602;23.468;2022-12-22T01:53:47;26.98;;;9.18;;
6203;SDS011;3135;42.602;23.468;2022-12-22T01:56:31;17.77;;;8.02;;
6203;SDS011;3135;42.602;23.468;2022-12-22T01:59:16;21.00;;;8.40;;
6203;SDS011;3135;42.602;23.468;2022-12-22T02:02:00;19.97;;;7.90;;
6203;SDS011;3135;42.602;23.468;2022-12-22T02:04:48;18.35;;;7.80;;
6203;SDS011;3135;42.602;23.468;2022-12-22T02:13:44;16.92;;;7.20;;
6203;SDS011;3135;42.602;23.468;2022-12-22T02:16:48;19.08;;;7.03;;
6203;SDS011;3135;42.602;23.468;2022-12-22T02:25:42;18.23;;;7.30;;
6203;SDS011;3135;42.602;23.468;2022-12-22T02:28:33;25.05;;;9.00;;
6203;SDS011;3135;42.602;23.468;2022-12-22T02:31:18;23.05;;;9.23;;
6203;SDS011;3135;42.602;23.468;2022-12-22T02:34:02;19.70;;;8.35;;
6203;SDS011;3135;42.602;23.468;2022-12-22T02:36:49;17.55;;;7.45;;
6203;SDS011;3135;42.602;23.468;2022-12-22T02:45:59;22.20;;;7.93;;
6203;SDS011;3135;42.602;23.468;2022-12-22T02:48:56;18.37;;;7.70;;
6203;SDS011;3135;42.602;23.468;2022-12-22T02:51:52;41.20;;;14.90;;
6203;SDS011;3135;42.602;23.468;2022-12-22T02:54:42;27.55;;;10.82;;
6203;SDS011;3135;42.602;23.468;2022-12-22T02:57:27;18.90;;;7.55;;
6203;SDS011;3135;42.602;23.468;2022-12-22T03:00:11;15.63;;;6.40;;
6203;SDS011;3135;42.602;23.468;2022-12-22T03:02:56;16.90;;;6.28;;
6203;SDS011;3135;42.602;23.468;2022-12-22T03:05:39;15.43;;;6.15;;
6203;SDS011;3135;42.602;23.468;2022-12-22T03:08:23;14.15;;;5.72;;
6203;SDS011;3135;42.602;23.468;2022-12-22T03:11:07;35.05;;;10.70;;
6203;SDS011;3135;42.602;23.468;2022-12-22T03:13:51;59.38;;;16.88;;
6203;SDS011;3135;42.602;23.468;2022-12-22T03:16:35;51.22;;;14.90;;
6203;SDS011;3135;42.602;23.468;2022-12-22T03:19:19;26.20;;;8.70;;
6203;SDS011;3135;42.602;23.468;2022-12-22T03:22:03;18.73;;;7.72;;
6203;SDS011;3135;42.602;23.468;2022-12-22T03:24:47;18.17;;;7.53;;
6203;SDS011;3135;42.602;23.468;2022-12-22T03:27:31;16.90;;;6.97;;
6203;SDS011;3135;42.602;23.468;2022-12-22T03:29:56;19.88;;;6.97;;
6203;SDS011;3135;42.602;23.468;2022-12-22T03:32:22;23.48;;;8.57;;
6203;SDS011;3135;42.602;23.468;2022-12-22T03:34:47;21.53;;;9.43;;
6203;SDS011;3135;42.602;23.468;2022-12-22T03:37:12;16.27;;;6.90;;
6203;SDS011;3135;42.602;23.468;2022-12-22T03:39:38;18.70;;;8.03;;
6203;SDS011;3135;42.602;23.468;2022-12-22T03:42:03;12.27;;;5.73;;
6203;SDS011;3135;42.602;23.468;2022-12-22T03:44:47;11.88;;;5.55;;
6203;SDS011;3135;42.602;23.468;2022-12-22T03:47:31;9.88;;;5.10;;
6203;SDS011;3135;42.602;23.468;2022-12-22T03:49:57;18.00;;;6.83;;
6203;SDS011;3135;42.602;23.468;2022-12-22T03:52:22;52.23;;;17.67;;
6203;SDS011;3135;42.602;23.468;2022-12-22T03:54:47;20.83;;;8.60;;
6203;SDS011;3135;42.602;23.468;2022-12-22T03:57:13;22.10;;;7.55;;
6203;SDS011;3135;42.602;23.468;2022-12-22T03:59:38;17.60;;;6.78;;
6203;SDS011;3135;42.602;23.468;2022-12-22T04:02:04;15.87;;;6.60;;
6203;SDS011;3135;42.602;23.468;2022-12-22T04:04:30;17.37;;;6.80;;
6203;SDS011;3135;42.602;23.468;2022-12-22T04:06:56;15.60;;;6.85;;
6203;SDS011;3135;42.602;23.468;2022-12-22T04:09:21;17.40;;;7.47;;
6203;SDS011;3135;42.602;23.468;2022-12-22T04:11:48;22.15;;;9.13;;
6203;SDS011;3135;42.602;23.468;2022-12-22T04:14:33;30.95;;;11.90;;
6203;SDS011;3135;42.602;23.468;2022-12-22T04:16:58;22.73;;;9.83;;
6203;SDS011;3135;42.602;23.468;2022-12-22T04:19:24;33.67;;;13.35;;
6203;SDS011;3135;42.602;23.468;2022-12-22T04:21:50;26.93;;;10.70;;
6203;SDS011;3135;42.602;23.468;2022-12-22T04:24:15;22.97;;;10.03;;
6203;SDS011;3135;42.602;23.468;2022-12-22T04:26:40;20.80;;;8.33;;
6203;SDS011;3135;42.602;23.468;2022-12-22T04:29:06;16.95;;;6.65;;
6203;SDS011;3135;42.602;23.468;2022-12-22T04:31:31;16.70;;;7.23;;
6203;SDS011;3135;42.602;23.468;2022-12-22T04:33:57;37.17;;;11.67;;
6203;SDS011;3135;42.602;23.468;2022-12-22T04:36:22;48.90;;;15.30;;
6203;SDS011;3135;42.602;23.468;2022-12-22T04:38:48;41.75;;;13.20;;
6203;SDS011;3135;42.602;23.468;2022-12-22T04:41:13;31.25;;;12.45;;
6203;SDS011;3135;42.602;23.468;2022-12-22T04:43:39;22.40;;;9.23;;
6203;SDS011;3135;42.602;23.468;2022-12-22T04:46:04;29.47;;;10.30;;
6203;SDS011;3135;42.602;23.468;2022-12-22T04:48:30;27.40;;;10.27;;
6203;SDS011;3135;42.602;23.468;2022-12-22T04:50:56;40.97;;;16.03;;
6203;SDS011;3135;42.602;23.468;2022-12-22T04:53:24;33.80;;;12.33;;
6203;SDS011;3135;42.602;23.468;2022-12-22T04:55:58;42.47;;;18.38;;
6203;SDS011;3135;42.602;23.468;2022-12-22T04:58:25;33.75;;;12.50;;
6203;SDS011;3135;42.602;23.468;2022-12-22T05:00:52;28.37;;;10.83;;
6203;SDS011;3135;42.602;23.468;2022-12-22T05:03:18;29.27;;;10.55;;
6203;SDS011;3135;42.602;23.468;2022-12-22T05:05:43;30.70;;;11.27;;
6203;SDS011;3135;42.602;23.468;2022-12-22T05:08:08;35.27;;;11.50;;
6203;SDS011;3135;42.602;23.468;2022-12-22T05:10:34;38.88;;;16.00;;
6203;SDS011;3135;42.602;23.468;2022-12-22T05:13:00;50.60;;;16.73;;
6203;SDS011;3135;42.602;23.468;2022-12-22T05:15:29;64.67;;;20.23;;
6203;SDS011;3135;42.602;23.468;2022-12-22T05:17:57;47.17;;;16.60;;
6203;SDS011;3135;42.602;23.468;2022-12-22T05:20:23;45.58;;;15.75;;
6203;SDS011;3135;42.602;23.468;2022-12-22T05:22:49;49.15;;;17.88;;
6203;SDS011;3135;42.602;23.468;2022-12-22T05:25:15;44.90;;;16.80;;
6203;SDS011;3135;42.602;23.468;2022-12-22T05:27:45;37.00;;;13.17;;
6203;SDS011;3135;42.602;23.468;2022-12-22T05:30:12;30.42;;;10.88;;
6203;SDS011;3135;42.602;23.468;2022-12-22T05:32:38;40.17;;;14.07;;
6203;SDS011;3135;42.602;23.468;2022-12-22T05:35:04;36.28;;;12.23;;
6203;SDS011;3135;42.602;23.468;2022-12-22T05:37:30;34.67;;;13.98;;
6203;SDS011;3135;42.602;23.468;2022-12-22T05:39:56;29.87;;;12.03;;
6203;SDS011;3135;42.602;23.468;2022-12-22T05:42:21;30.43;;;12.17;;
6203;SDS011;3135;42.602;23.468;2022-12-22T05:45:04;25.53;;;10.43;;
6203;SDS011;3135;42.602;23.468;2022-12-22T05:47:30;30.70;;;11.20;;
6203;SDS011;3135;42.602;23.468;2022-12-22T05:49:56;26.95;;;11.18;;
6203;SDS011;3135;42.602;23.468;2022-12-22T05:52:21;31.23;;;11.73;;
6203;SDS011;3135;42.602;23.468;2022-12-22T05:54:46;33.07;;;12.43;;
6203;SDS011;3135;42.602;23.468;2022-12-22T05:57:12;33.00;;;12.63;;
6203;SDS011;3135;42.602;23.468;2022-12-22T05:59:37;32.63;;;13.03;;
6203;SDS011;3135;42.602;23.468;2022-12-22T06:02:03;32.35;;;12.10;;
6203;SDS011;3135;42.602;23.468;2022-12-22T06:04:28;31.90;;;12.70;;
6203;SDS011;3135;42.602;23.468;2022-12-22T06:06:53;36.30;;;14.20;;
6203;SDS011;3135;42.602;23.468;2022-12-22T06:09:19;41.90;;;15.03;;
6203;SDS011;3135;42.602;23.468;2022-12-22T06:11:44;54.57;;;19.87;;
6203;SDS011;3135;42.602;23.468;2022-12-22T06:14:10;50.90;;;19.00;;
6203;SDS011;3135;42.602;23.468;2022-12-22T06:16:35;80.10;;;26.75;;
6203;SDS011;3135;42.602;23.468;2022-12-22T06:19:00;52.70;;;17.77;;
6203;SDS011;3135;42.602;23.468;2022-12-22T06:21:26;35.03;;;13.40;;
6203;SDS011;3135;42.602;23.468;2022-12-22T06:23:51;56.07;;;19.93;;
6203;SDS011;3135;42.602;23.468;2022-12-22T06:26:19;59.88;;;20.00;;
6203;SDS011;3135;42.602;23.468;2022-12-22T06:28:45;63.17;;;19.67;;
6203;SDS011;3135;42.602;23.468;2022-12-22T06:31:10;65.22;;;22.73;;
6203;SDS011;3135;42.602;23.468;2022-12-22T06:33:36;60.37;;;20.83;;
6203;SDS011;3135;42.602;23.468;2022-12-22T06:36:05;38.67;;;14.30;;
6203;SDS011;3135;42.602;23.468;2022-12-22T06:38:31;39.20;;;14.60;;
6203;SDS011;3135;42.602;23.468;2022-12-22T06:40:57;35.70;;;13.83;;
6203;SDS011;3135;42.602;23.468;2022-12-22T06:43:22;42.83;;;15.70;;
6203;SDS011;3135;42.602;23.468;2022-12-22T06:45:48;51.85;;;18.42;;
6203;SDS011;3135;42.602;23.468;2022-12-22T06:48:13;42.53;;;16.07;;
6203;SDS011;3135;42.602;23.468;2022-12-22T06:50:39;39.73;;;15.33;;
6203;SDS011;3135;42.602;23.468;2022-12-22T06:53:05;36.35;;;13.65;;
6203;SDS011;3135;42.602;23.468;2022-12-22T06:55:31;33.63;;;12.30;;
6203;SDS011;3135;42.602;23.468;2022-12-22T06:57:56;32.07;;;13.17;;
6203;SDS011;3135;42.602;23.468;2022-12-22T07:00:21;38.00;;;15.37;;
6203;SDS011;3135;42.602;23.468;2022-12-22T07:02:47;43.90;;;16.73;;
6203;SDS011;3135;42.602;23.468;2022-12-22T07:05:12;38.30;;;16.20;;
6203;SDS011;3135;42.602;23.468;2022-12-22T07:07:39;40.83;;;16.00;;
6203;SDS011;3135;42.602;23.468;2022-12-22T07:10:05;39.83;;;15.95;;
6203;SDS011;3135;42.602;23.468;2022-12-22T07:12:31;43.03;;;15.63;;
6203;SDS011;3135;42.602;23.468;2022-12-22T07:14:56;45.27;;;16.30;;
6203;SDS011;3135;42.602;23.468;2022-12-22T07:17:22;44.58;;;16.88;;
6203;SDS011;3135;42.602;23.468;2022-12-22T07:19:47;49.80;;;17.80;;
6203;SDS011;3135;42.602;23.468;2022-12-22T07:22:13;46.73;;;18.20;;
6203;SDS011;3135;42.602;23.468;2022-12-22T07:24:38;41.30;;;15.97;;
6203;SDS011;3135;42.602;23.468;2022-12-22T07:27:03;46.83;;;16.90;;
6203;SDS011;3135;42.602;23.468;2022-12-22T07:29:29;45.80;;;18.03;;
6203;SDS011;3135;42.602;23.468;2022-12-22T07:31:54;45.47;;;17.60;;
6203;SDS011;3135;42.602;23.468;2022-12-22T07:34:20;59.93;;;21.77;;
6203;SDS011;3135;42.602;23.468;2022-12-22T07:36:45;53.43;;;20.77;;
6203;SDS011;3135;42.602;23.468;2022-12-22T07:39:11;57.00;;;22.30;;
6203;SDS011;3135;42.602;23.468;2022-12-22T07:41:36;75.55;;;26.52;;
6203;SDS011;3135;42.602;23.468;2022-12-22T07:44:21;103.50;;;36.97;;
6203;SDS011;3135;42.602;23.468;2022-12-22T07:46:46;103.83;;;37.30;;
6203;SDS011;3135;42.602;23.468;2022-12-22T07:49:12;98.43;;;35.63;;
6203;SDS011;3135;42.602;23.468;2022-12-22T07:51:56;104.18;;;38.13;;
6203;SDS011;3135;42.602;23.468;2022-12-22T07:54:23;74.20;;;28.03;;
6203;SDS011;3135;42.602;23.468;2022-12-22T07:56:49;57.25;;;24.25;;
6203;SDS011;3135;42.602;23.468;2022-12-22T07:59:15;53.27;;;21.70;;
6203;SDS011;3135;42.602;23.468;2022-12-22T08:01:40;50.10;;;18.80;;
6203;SDS011;3135;42.602;23.468;2022-12-22T08:04:07;63.70;;;23.23;;
6203;SDS011;3135;42.602;23.468;2022-12-22T08:06:33;92.93;;;34.35;;
6203;SDS011;3135;42.602;23.468;2022-12-22T08:08:59;121.30;;;42.37;;
6203;SDS011;3135;42.602;23.468;2022-12-22T08:11:25;109.45;;;39.45;;
6203;SDS011;3135;42.602;23.468;2022-12-22T08:13:51;85.03;;;33.70;;
6203;SDS011;3135;42.602;23.468;2022-12-22T08:16:16;85.35;;;33.17;;
6203;SDS011;3135;42.602;23.468;2022-12-22T08:18:43;97.10;;;36.07;;
6203;SDS011;3135;42.602;23.468;2022-12-22T08:21:08;69.85;;;26.17;;
6203;SDS011;3135;42.602;23.468;2022-12-22T08:23:34;74.83;;;28.40;;
6203;SDS011;3135;42.602;23.468;2022-12-22T08:26:07;78.70;;;29.03;;
6203;SDS011;3135;42.602;23.468;2022-12-22T08:28:36;114.85;;;38.47;;
6203;SDS011;3135;42.602;23.468;2022-12-22T08:31:25;114.50;;;38.97;;
6203;SDS011;3135;42.602;23.468;2022-12-22T08:33:53;116.00;;;40.05;;
6203;SDS011;3135;42.602;23.468;2022-12-22T08:36:20;102.15;;;36.58;;
6203;SDS011;3135;42.602;23.468;2022-12-22T08:38:46;109.03;;;39.37;;
6203;SDS011;3135;42.602;23.468;2022-12-22T08:41:12;113.03;;;40.03;;
6203;SDS011;3135;42.602;23.468;2022-12-22T08:43:40;112.97;;;41.33;;
6203;SDS011;3135;42.602;23.468;2022-12-22T08:46:05;114.97;;;42.25;;
6203;SDS011;3135;42.602;23.468;2022-12-22T08:48:30;134.60;;;45.28;;
6203;SDS011;3135;42.602;23.468;2022-12-22T08:50:56;123.33;;;44.77;;
6203;SDS011;3135;42.602;23.468;2022-12-22T08:53:22;140.73;;;48.80;;
6203;SDS011;3135;42.602;23.468;2022-12-22T08:55:51;154.13;;;54.67;;
6203;SDS011;3135;42.602;23.468;2022-12-22T08:58:17;160.70;;;57.17;;
6203;SDS011;3135;42.602;23.468;2022-12-22T09:00:43;164.73;;;57.57;;
6203;SDS011;3135;42.602;23.468;2022-12-22T09:03:08;172.03;;;60.07;;
6203;SDS011;3135;42.602;23.468;2022-12-22T09:05:34;169.63;;;57.53;;
6203;SDS011;3135;42.602;23.468;2022-12-22T09:08:02;161.30;;;57.67;;
6203;SDS011;3135;42.602;23.468;2022-12-22T09:10:28;149.60;;;54.17;;
6203;SDS011;3135;42.602;23.468;2022-12-22T09:12:54;157.05;;;56.38;;
6203;SDS011;3135;42.602;23.468;2022-12-22T09:15:19;177.43;;;61.22;;
6203;SDS011;3135;42.602;23.468;2022-12-22T09:17:45;182.67;;;62.30;;
6203;SDS011;3135;42.602;23.468;2022-12-22T09:20:11;174.00;;;61.20;;
6203;SDS011;3135;42.602;23.468;2022-12-22T09:22:36;234.27;;;76.40;;
6203;SDS011;3135;42.602;23.468;2022-12-22T09:25:02;252.63;;;85.07;;
6203;SDS011;3135;42.602;23.468;2022-12-22T09:27:28;242.70;;;85.20;;
6203;SDS011;3135;42.602;23.468;2022-12-22T09:29:54;223.88;;;76.47;;
6203;SDS011;3135;42.602;23.468;2022-12-22T09:32:19;144.73;;;51.50;;
6203;SDS011;3135;42.602;23.468;2022-12-22T09:34:45;111.67;;;42.03;;
6203;SDS011;3135;42.602;23.468;2022-12-22T09:37:12;90.50;;;34.50;;
6203;SDS011;3135;42.602;23.468;2022-12-22T09:39:39;90.13;;;36.30;;
6203;SDS011;3135;42.602;23.468;2022-12-22T09:42:04;99.33;;;36.27;;
6203;SDS011;3135;42.602;23.468;2022-12-22T09:44:40;105.60;;;37.17;;
6203;SDS011;3135;42.602;23.468;2022-12-22T09:47:17;96.03;;;36.50;;
6203;SDS011;3135;42.602;23.468;2022-12-22T09:49:49;104.05;;;39.22;;
6203;SDS011;3135;42.602;23.468;2022-12-22T09:52:22;110.93;;;42.00;;
6203;SDS011;3135;42.602;23.468;2022-12-22T09:54:52;103.20;;;39.33;;
6203;SDS011;3135;42.602;23.468;2022-12-22T09:57:19;91.88;;;36.72;;
6203;SDS011;3135;42.602;23.468;2022-12-22T09:59:48;99.22;;;37.33;;
6203;SDS011;3135;42.602;23.468;2022-12-22T10:02:18;95.57;;;35.15;;
6203;SDS011;3135;42.602;23.468;2022-12-22T10:07:35;82.97;;;32.53;;
6203;SDS011;3135;42.602;23.468;2022-12-22T10:10:25;108.30;;;42.10;;
6203;SDS011;3135;42.602;23.468;2022-12-22T10:12:59;88.55;;;34.08;;
6203;SDS011;3135;42.602;23.468;2022-12-22T10:15:30;87.13;;;32.67;;
6203;SDS011;3135;42.602;23.468;2022-12-22T10:23:33;106.05;;;39.40;;
6203;SDS011;3135;42.602;23.468;2022-12-22T10:28:50;114.27;;;42.83;;
6203;SDS011;3135;42.602;23.468;2022-12-22T10:31:22;105.25;;;41.55;;
6203;SDS011;3135;42.602;23.468;2022-12-22T10:33:51;115.85;;;43.92;;
6203;SDS011;3135;42.602;23.468;2022-12-22T10:36:21;123.75;;;44.78;;
6203;SDS011;3135;42.602;23.468;2022-12-22T10:38:57;120.25;;;43.70;;
6203;SDS011;3135;42.602;23.468;2022-12-22T10:41:35;144.85;;;49.53;;
6203;SDS011;3135;42.602;23.468;2022-12-22T10:44:09;148.80;;;51.38;;
6203;SDS011;3135;42.602;23.468;2022-12-22T10:46:44;182.30;;;63.28;;
6203;SDS011;3135;42.602;23.468;2022-12-22T10:51:54;112.03;;;41.58;;
6203;SDS011;3135;42.602;23.468;2022-12-22T10:54:34;120.60;;;42.35;;
6203;SDS011;3135;42.602;23.468;2022-12-22T10:59:25;126.90;;;45.13;;
6203;SDS011;3135;42.602;23.468;2022-12-22T11:01:50;118.30;;;43.72;;
6203;SDS011;3135;42.602;23.468;2022-12-22T11:06:46;130.20;;;46.90;;
6203;SDS011;3135;42.602;23.468;2022-12-22T11:09:11;135.13;;;47.90;;
6203;SDS011;3135;42.602;23.468;2022-12-22T11:11:51;128.10;;;45.53;;
6203;SDS011;3135;42.602;23.468;2022-12-22T11:28:11;76.43;;;29.67;;
6203;SDS011;3135;42.602;23.468;2022-12-22T11:31:15;83.28;;;32.25;;
6203;SDS011;3135;42.602;23.468;2022-12-22T11:37:27;95.50;;;35.17;;
6203;SDS011;3135;42.602;23.468;2022-12-22T11:39:53;87.55;;;32.08;;
6203;SDS011;3135;42.602;23.468;2022-12-22T11:42:41;77.40;;;28.83;;
6203;SDS011;3135;42.602;23.468;2022-12-22T11:53:46;45.42;;;17.23;;
6203;SDS011;3135;42.602;23.468;2022-12-22T12:07:18;48.63;;;18.65;;
6203;SDS011;3135;42.602;23.468;2022-12-22T12:15:18;62.88;;;25.25;;
6203;SDS011;3135;42.602;23.468;2022-12-22T12:17:58;73.63;;;27.63;;
6203;SDS011;3135;42.602;23.468;2022-12-22T12:20:30;75.97;;;28.23;;
6203;SDS011;3135;42.602;23.468;2022-12-22T12:26:00;78.88;;;30.50;;
6203;SDS011;3135;42.602;23.468;2022-12-22T12:31:26;83.90;;;33.05;;
6203;SDS011;3135;42.602;23.468;2022-12-22T12:33:58;77.03;;;31.17;;
6203;SDS011;3135;42.602;23.468;2022-12-22T12:53:19;19.58;;;9.00;;
6203;SDS011;3135;42.602;23.468;2022-12-22T13:03:43;10.63;;;4.83;;
6203;SDS011;3135;42.602;23.468;2022-12-22T13:06:10;12.20;;;5.90;;
6203;SDS011;3135;42.602;23.468;2022-12-22T13:09:10;13.77;;;6.22;;
6203;SDS011;3135;42.602;23.468;2022-12-22T13:11:40;11.17;;;4.90;;
6203;SDS011;3135;42.602;23.468;2022-12-22T13:14:06;11.95;;;3.97;;
6203;SDS011;3135;42.602;23.468;2022-12-22T13:16:33;12.38;;;5.05;;
6203;SDS011;3135;42.602;23.468;2022-12-22T13:19:08;13.63;;;5.60;;
6203;SDS011;3135;42.602;23.468;2022-12-22T13:21:43;14.52;;;6.63;;
6203;SDS011;3135;42.602;23.468;2022-12-22T13:26:42;14.35;;;7.30;;
6203;SDS011;3135;42.602;23.468;2022-12-22T13:32:20;26.25;;;9.23;;
6203;SDS011;3135;42.602;23.468;2022-12-22T13:36:57;25.80;;;11.60;;
6203;SDS011;3135;42.602;23.468;2022-12-22T13:39:24;36.67;;;16.33;;
6203;SDS011;3135;42.602;23.468;2022-12-22T13:41:49;35.43;;;15.10;;
6203;SDS011;3135;42.602;23.468;2022-12-22T13:44:21;29.60;;;10.82;;
6203;SDS011;3135;42.602;23.468;2022-12-22T13:47:03;38.22;;;15.88;;
6203;SDS011;3135;42.602;23.468;2022-12-22T13:49:35;42.17;;;17.40;;
6203;SDS011;3135;42.602;23.468;2022-12-22T13:52:01;42.57;;;18.40;;
6203;SDS011;3135;42.602;23.468;2022-12-22T13:54:35;38.55;;;16.92;;
6203;SDS011;3135;42.602;23.468;2022-12-22T13:57:02;49.10;;;20.65;;
6203;SDS011;3135;42.602;23.468;2022-12-22T13:59:41;37.53;;;15.85;;
6203;SDS011;3135;42.602;23.468;2022-12-22T14:04:34;99.73;;;32.90;;
6203;SDS011;3135;42.602;23.468;2022-12-22T14:07:17;126.97;;;41.33;;
6203;SDS011;3135;42.602;23.468;2022-12-22T14:12:12;72.43;;;31.73;;
6203;SDS011;3135;42.602;23.468;2022-12-22T14:14:40;62.35;;;25.02;;
6203;SDS011;3135;42.602;23.468;2022-12-22T14:17:20;55.47;;;22.70;;
6203;SDS011;3135;42.602;23.468;2022-12-22T14:19:47;75.50;;;25.65;;
6203;SDS011;3135;42.602;23.468;2022-12-22T14:22:16;67.82;;;28.70;;
6203;SDS011;3135;42.602;23.468;2022-12-22T14:24:47;55.90;;;22.25;;
6203;SDS011;3135;42.602;23.468;2022-12-22T14:29:56;55.55;;;26.63;;
6203;SDS011;3135;42.602;23.468;2022-12-22T14:32:36;25.40;;;10.55;;
6203;SDS011;3135;42.602;23.468;2022-12-22T14:35:25;18.33;;;8.20;;
6203;SDS011;3135;42.602;23.468;2022-12-22T14:37:53;18.60;;;8.83;;
6203;SDS011;3135;42.602;23.468;2022-12-22T14:40:40;16.17;;;6.70;;
6203;SDS011;3135;42.602;23.468;2022-12-22T14:45:42;13.05;;;6.78;;
6203;SDS011;3135;42.602;23.468;2022-12-22T14:48:08;17.42;;;7.85;;
6203;SDS011;3135;42.602;23.468;2022-12-22T14:50:52;16.65;;;8.55;;
6203;SDS011;3135;42.602;23.468;2022-12-22T14:54:01;29.25;;;14.82;;
6203;SDS011;3135;42.602;23.468;2022-12-22T14:56:10;23.88;;;10.90;;
6203;SDS011;3135;42.602;23.468;2022-12-22T14:58:38;36.92;;;17.73;;
6203;SDS011;3135;42.602;23.468;2022-12-22T15:01:16;26.67;;;13.10;;
6203;SDS011;3135;42.602;23.468;2022-12-22T15:09:22;37.87;;;15.67;;
6203;SDS011;3135;42.602;23.468;2022-12-22T15:11:51;33.85;;;13.73;;
6203;SDS011;3135;42.602;23.468;2022-12-22T15:14:23;25.58;;;10.68;;
6203;SDS011;3135;42.602;23.468;2022-12-22T15:16:56;21.05;;;9.45;;
6203;SDS011;3135;42.602;23.468;2022-12-22T15:19:25;23.38;;;10.82;;
6203;SDS011;3135;42.602;23.468;2022-12-22T15:21:54;37.83;;;15.63;;
6203;SDS011;3135;42.602;23.468;2022-12-22T15:24:19;72.40;;;26.83;;
6203;SDS011;3135;42.602;23.468;2022-12-22T15:26:45;77.25;;;26.30;;
6203;SDS011;3135;42.602;23.468;2022-12-22T15:29:11;44.47;;;15.73;;
6203;SDS011;3135;42.602;23.468;2022-12-22T15:31:37;299.60;;;67.22;;
6203;SDS011;3135;42.602;23.468;2022-12-22T15:34:05;484.40;;;105.68;;
6203;SDS011;3135;42.602;23.468;2022-12-22T15:36:36;400.33;;;91.03;;
6203;SDS011;3135;42.602;23.468;2022-12-22T15:39:01;139.97;;;42.13;;
6203;SDS011;3135;42.602;23.468;2022-12-22T15:41:27;85.10;;;40.37;;
6203;SDS011;3135;42.602;23.468;2022-12-22T15:43:52;38.35;;;17.67;;
6203;SDS011;3135;42.602;23.468;2022-12-22T15:46:17;28.67;;;12.98;;
6203;SDS011;3135;42.602;23.468;2022-12-22T15:48:43;19.75;;;8.95;;
6203;SDS011;3135;42.602;23.468;2022-12-22T15:51:14;79.53;;;29.50;;
6203;SDS011;3135;42.602;23.468;2022-12-22T15:53:45;69.32;;;26.48;;
6203;SDS011;3135;42.602;23.468;2022-12-22T15:56:11;40.43;;;17.73;;
6203;SDS011;3135;42.602;23.468;2022-12-22T15:58:41;35.20;;;18.70;;
6203;SDS011;3135;42.602;23.468;2022-12-22T16:01:08;86.50;;;29.80;;
6203;SDS011;3135;42.602;23.468;2022-12-22T16:03:35;58.15;;;25.80;;
6203;SDS011;3135;42.602;23.468;2022-12-22T16:06:01;45.00;;;22.03;;
6203;SDS011;3135;42.602;23.468;2022-12-22T16:08:27;31.70;;;16.83;;
6203;SDS011;3135;42.602;23.468;2022-12-22T16:10:57;23.83;;;11.40;;
6203;SDS011;3135;42.602;23.468;2022-12-22T16:13:24;17.40;;;8.67;;
6203;SDS011;3135;42.602;23.468;2022-12-22T16:15:51;19.90;;;8.70;;
6203;SDS011;3135;42.602;23.468;2022-12-22T16:18:17;112.32;;;31.38;;
6203;SDS011;3135;42.602;23.468;2022-12-22T16:20:43;76.30;;;29.70;;
6203;SDS011;3135;42.602;23.468;2022-12-22T16:23:14;60.87;;;28.77;;
6203;SDS011;3135;42.602;23.468;2022-12-22T16:25:42;45.53;;;20.33;;
6203;SDS011;3135;42.602;23.468;2022-12-22T16:28:19;34.83;;;14.63;;
6203;SDS011;3135;42.602;23.468;2022-12-22T16:30:46;24.75;;;13.52;;
6203;SDS011;3135;42.602;23.468;2022-12-22T16:33:12;22.95;;;11.63;;
6203;SDS011;3135;42.602;23.468;2022-12-22T16:35:39;20.27;;;9.17;;
6203;SDS011;3135;42.602;23.468;2022-12-22T16:38:05;24.17;;;10.35;;
6203;SDS011;3135;42.602;23.468;2022-12-22T16:40:31;37.58;;;14.75;;
6203;SDS011;3135;42.602;23.468;2022-12-22T16:43:16;36.25;;;13.93;;
6203;SDS011;3135;42.602;23.468;2022-12-22T16:45:44;22.15;;;9.25;;
6203;SDS011;3135;42.602;23.468;2022-12-22T16:48:14;23.80;;;10.57;;
6203;SDS011;3135;42.602;23.468;2022-12-22T16:50:43;15.13;;;7.60;;
6203;SDS011;3135;42.602;23.468;2022-12-22T16:53:10;25.85;;;10.88;;
6203;SDS011;3135;42.602;23.468;2022-12-22T16:55:38;25.52;;;9.55;;
6203;SDS011;3135;42.602;23.468;2022-12-22T16:58:04;26.02;;;12.00;;
6203;SDS011;3135;42.602;23.468;2022-12-22T17:00:30;25.43;;;14.13;;
6203;SDS011;3135;42.602;23.468;2022-12-22T17:03:01;31.55;;;15.82;;
6203;SDS011;3135;42.602;23.468;2022-12-22T17:05:36;28.20;;;14.07;;
6203;SDS011;3135;42.602;23.468;2022-12-22T17:08:05;28.17;;;13.68;;
6203;SDS011;3135;42.602;23.468;2022-12-22T17:10:33;26.33;;;12.75;;
6203;SDS011;3135;42.602;23.468;2022-12-22T17:12:59;24.60;;;13.25;;
6203;SDS011;3135;42.602;23.468;2022-12-22T17:15:25;21.42;;;10.95;;
6203;SDS011;3135;42.602;23.468;2022-12-22T17:17:51;25.40;;;10.50;;
6203;SDS011;3135;42.602;23.468;2022-12-22T17:20:18;23.13;;;11.67;;
6203;SDS011;3135;42.602;23.468;2022-12-22T17:22:52;22.65;;;10.02;;